sensor_id;sensor_type;location;lat;lon;timestamp;pressure;altitude;pressure_sealevel;temperature;humidity
36092;BME280;22147;52.388;13.390;2023-04-26T00:02:13;100786.31;;;2.61;100.00
36092;BME280;22147;52.388;13.390;2023-04-26T00:04:42;100785.75;;;2.64;100.00
36092;BME280;22147;52.388;13.390;2023-04-26T00:07:10;100788.81;;;2.63;100.00
36092;BME280;22147;52.388;13.390;2023-04-26T00:09:42;100788.78;;;2.58;100.00
36092;BME280;22147;52.388;13.390;2023-04-26T00:12:14;100787.13;;;2.52;100.00
36092;BME280;22147;52.388;13.390;2023-04-26T00:14:45;100785.22;;;2.52;100.00
36092;BME280;22147;52.388;13.390;2023-04-26T00:17:15;100792.34;;;2.53;100.00
36092;BME280;22147;52.388;13.390;2023-04-26T00:19:45;100789.06;;;2.51;100.00
36092;BME280;22147;52.388;13.390;2023-04-26T00:22:16;100788.25;;;2.46;100.00
36092;BME280;22147;52.388;13.390;2023-04-26T00:24:46;100784.94;;;2.49;100.00
36092;BME280;22147;52.388;13.390;2023-04-26T00:27:16;100787.94;;;2.47;100.00
36092;BME280;22147;52.388;13.390;2023-04-26T00:29:46;100788.25;;;2.46;100.00
36092;BME280;22147;52.388;13.390;2023-04-26T00:32:17;100796.44;;;2.40;100.00
36092;BME280;22147;52.388;13.390;2023-04-26T00:34:47;100796.44;;;2.35;100.00
36092;BME280;22147;52.388;13.390;2023-04-26T00:37:17;100792.03;;;2.29;100.00
36092;BME280;22147;52.388;13.390;2023-04-26T00:39:47;100783.81;;;2.19;100.00
36092;BME280;22147;52.388;13.390;2023-04-26T00:42:18;100785.44;;;2.20;100.00
36092;BME280;22147;52.388;13.390;2023-04-26T00:44:48;100786.00;;;2.17;100.00
36092;BME280;22147;52.388;13.390;2023-04-26T00:47:19;100783.25;;;2.12;100.00
36092;BME280;22147;52.388;13.390;2023-04-26T00:49:49;100792.81;;;2.09;100.00
36092;BME280;22147;52.388;13.390;2023-04-26T00:52:21;100789.25;;;2.09;100.00
36092;BME280;22147;52.388;13.390;2023-04-26T00:54:54;100796.06;;;2.01;100.00
36092;BME280;22147;52.388;13.390;2023-04-26T00:57:25;100803.22;;;2.02;100.00
36092;BME280;22147;52.388;13.390;2023-04-26T00:59:55;100795.84;;;2.08;100.00
36092;BME280;22147;52.388;13.390;2023-04-26T01:02:26;100803.72;;;1.99;100.00
36092;BME280;22147;52.388;13.390;2023-04-26T01:04:56;100799.91;;;1.95;100.00
36092;BME280;22147;52.388;13.390;2023-04-26T01:07:26;100800.72;;;1.95;100.00
36092;BME280;22147;52.388;13.390;2023-04-26T01:09:57;100801.31;;;2.13;100.00
36092;BME280;22147;52.388;13.390;2023-04-26T01:12:27;100801.31;;;2.13;100.00
36092;BME280;22147;52.388;13.390;2023-04-26T01:15:02;100795.84;;;2.08;100.00
36092;BME280;22147;52.388;13.390;2023-04-26T01:17:34;100801.28;;;2.02;100.00
36092;BME280;22147;52.388;13.390;2023-04-26T01:20:07;100804.28;;;2.01;100.00
36092;BME280;22147;52.388;13.390;2023-04-26T01:22:38;100808.91;;;1.90;100.00
36092;BME280;22147;52.388;13.390;2023-04-26T01:25:11;100817.91;;;1.80;100.00
36092;BME280;22147;52.388;13.390;2023-04-26T01:27:40;100814.31;;;1.75;100.00
36092;BME280;22147;52.388;13.390;2023-04-26T01:30:10;100806.34;;;1.63;100.00
36092;BME280;22147;52.388;13.390;2023-04-26T01:32:40;100816.50;;;1.68;100.00
36092;BME280;22147;52.388;13.390;2023-04-26T01:35:10;100817.56;;;1.61;100.00
36092;BME280;22147;52.388;13.390;2023-04-26T01:37:40;100815.94;;;1.66;100.00
36092;BME280;22147;52.388;13.390;2023-04-26T01:40:11;100816.22;;;1.69;100.00
36092;BME280;22147;52.388;13.390;2023-04-26T01:42:41;100817.31;;;1.68;100.00
36092;BME280;22147;52.388;13.390;2023-04-26T01:45:11;100825.28;;;1.70;100.00
36092;BME280;22147;52.388;13.390;2023-04-26T01:47:41;100823.09;;;1.72;100.00
36092;BME280;22147;52.388;13.390;2023-04-26T01:50:11;100818.69;;;1.71;100.00
36092;BME280;22147;52.388;13.390;2023-04-26T01:52:41;100826.34;;;1.63;100.00
36092;BME280;22147;52.388;13.390;2023-04-26T01:55:11;100826.59;;;1.62;100.00
36092;BME280;22147;52.388;13.390;2023-04-26T01:57:40;100815.63;;;1.57;100.00
36092;BME280;22147;52.388;13.390;2023-04-26T02:00:11;100823.03;;;1.61;100.00
36092;BME280;22147;52.388;13.390;2023-04-26T02:02:41;100821.66;;;1.59;100.00
36092;BME280;22147;52.388;13.390;2023-04-26T02:05:11;100826.28;;;1.58;100.00
36092;BME280;22147;52.388;13.390;2023-04-26T02:07:41;100827.16;;;1.64;100.00
36092;BME280;22147;52.388;13.390;2023-04-26T02:10:11;100819.69;;;1.49;100.00
36092;BME280;22147;52.388;13.390;2023-04-26T02:12:41;100820.78;;;1.53;100.00
36092;BME280;22147;52.388;13.390;2023-04-26T02:15:11;100819.44;;;1.56;100.00
36092;BME280;22147;52.388;13.390;2023-04-26T02:17:39;100814.50;;;1.53;100.00
36092;BME280;22147;52.388;13.390;2023-04-26T02:20:08;100828.75;;;1.60;100.00
36092;BME280;22147;52.388;13.390;2023-04-26T02:22:36;100819.13;;;1.52;100.00
36092;BME280;22147;52.388;13.390;2023-04-26T02:25:05;100825.69;;;1.46;100.00
36092;BME280;22147;52.388;13.390;2023-04-26T02:27:33;100826.75;;;1.45;100.00
36092;BME280;22147;52.388;13.390;2023-04-26T02:30:01;100824.22;;;1.33;100.00
36092;BME280;22147;52.388;13.390;2023-04-26T02:32:29;100824.50;;;1.32;100.00
36092;BME280;22147;52.388;13.390;2023-04-26T02:34:58;100820.94;;;1.31;100.00
36092;BME280;22147;52.388;13.390;2023-04-26T02:37:26;100820.09;;;1.26;100.00
36092;BME280;22147;52.388;13.390;2023-04-26T02:39:55;100811.56;;;1.22;100.00
36092;BME280;22147;52.388;13.390;2023-04-26T02:42:24;100807.16;;;1.16;100.00
36092;BME280;22147;52.388;13.390;2023-04-26T02:44:52;100820.34;;;1.24;100.00
36092;BME280;22147;52.388;13.390;2023-04-26T02:47:20;100822.19;;;1.13;100.00
36092;BME280;22147;52.388;13.390;2023-04-26T02:49:48;100816.94;;;1.07;100.00
36092;BME280;22147;52.388;13.390;2023-04-26T02:52:17;100815.56;;;1.04;100.00
36092;BME280;22147;52.388;13.390;2023-04-26T02:54:45;100816.63;;;1.03;100.00
36092;BME280;22147;52.388;13.390;2023-04-26T02:57:14;100817.72;;;1.02;100.00
36092;BME280;22147;52.388;13.390;2023-04-26T02:59:42;100819.03;;;0.94;100.00
36092;BME280;22147;52.388;13.390;2023-04-26T03:02:11;100816.56;;;0.93;100.00
36092;BME280;22147;52.388;13.390;2023-04-26T03:04:39;100817.34;;;0.88;100.00
36092;BME280;22147;52.388;13.390;2023-04-26T03:07:08;100819.00;;;0.89;100.00
36092;BME280;22147;52.388;13.390;2023-04-26T03:09:36;100819.19;;;0.82;100.00
36092;BME280;22147;52.388;13.390;2023-04-26T03:12:07;100830.75;;;0.90;100.00
36092;BME280;22147;52.388;13.390;2023-04-26T03:14:39;100822.78;;;0.83;100.00
36092;BME280;22147;52.388;13.390;2023-04-26T03:17:09;100821.91;;;0.77;100.00
36092;BME280;22147;52.388;13.390;2023-04-26T03:19:39;100824.84;;;0.71;100.00
36092;BME280;22147;52.388;13.390;2023-04-26T03:22:09;100821.31;;;0.70;100.00
36092;BME280;22147;52.388;13.390;2023-04-26T03:24:44;100821.53;;;0.64;100.00
36092;BME280;22147;52.388;13.390;2023-04-26T03:27:15;100818.47;;;0.60;100.00
36092;BME280;22147;52.388;13.390;2023-04-26T03:29:45;100829.09;;;0.56;100.00
36092;BME280;22147;52.388;13.390;2023-04-26T03:32:15;100826.34;;;0.56;100.00
36092;BME280;22147;52.388;13.390;2023-04-26T03:34:45;100832.28;;;0.48;100.00
36092;BME280;22147;52.388;13.390;2023-04-26T03:37:15;100841.25;;;0.44;100.00
36092;BME280;22147;52.388;13.390;2023-04-26T03:39:45;100830.41;;;0.49;100.00
36092;BME280;22147;52.388;13.390;2023-04-26T03:42:15;100833.13;;;0.49;100.00
36092;BME280;22147;52.388;13.390;2023-04-26T03:44:45;100839.72;;;0.53;100.00
36092;BME280;22147;52.388;13.390;2023-04-26T03:47:15;100833.13;;;0.49;100.00
36092;BME280;22147;52.388;13.390;2023-04-26T03:49:45;100833.97;;;0.49;100.00
36092;BME280;22147;52.388;13.390;2023-04-26T03:52:14;100844.59;;;0.51;100.00
36092;BME280;22147;52.388;13.390;2023-04-26T03:54:42;100846.03;;;0.53;100.00
36092;BME280;22147;52.388;13.390;2023-04-26T03:57:10;100848.47;;;0.55;100.00
36092;BME280;22147;52.388;13.390;2023-04-26T03:59:39;100847.22;;;0.68;100.00
36092;BME280;22147;52.388;13.390;2023-04-26T04:02:07;100846.47;;;0.72;100.00
36092;BME280;22147;52.388;13.390;2023-04-26T04:04:36;100850.03;;;0.73;100.00
36092;BME280;22147;52.388;13.390;2023-04-26T04:07:04;100853.84;;;0.72;100.00
36092;BME280;22147;52.388;13.390;2023-04-26T04:09:33;100854.47;;;0.79;100.00
36092;BME280;22147;52.388;13.390;2023-04-26T04:12:01;100854.22;;;0.80;100.00
36092;BME280;22147;52.388;13.390;2023-04-26T04:14:29;100850.34;;;0.76;100.00
36092;BME280;22147;52.388;13.390;2023-04-26T04:16:58;100855.75;;;0.71;100.00
36092;BME280;22147;52.388;13.390;2023-04-26T04:19:26;100859.50;;;0.65;100.00
36092;BME280;22147;52.388;13.390;2023-04-26T04:21:55;100859.81;;;0.69;100.00
36092;BME280;22147;52.388;13.390;2023-04-26T04:24:23;100864.50;;;0.73;100.00
36092;BME280;22147;52.388;13.390;2023-04-26T04:26:52;100863.72;;;0.78;100.00
36092;BME280;22147;52.388;13.390;2023-04-26T04:29:20;100866.06;;;0.91;100.00
36092;BME280;22147;52.388;13.390;2023-04-26T04:31:49;100864.47;;;0.95;100.00
36092;BME280;22147;52.388;13.390;2023-04-26T04:34:17;100859.66;;;1.13;100.00
36092;BME280;22147;52.388;13.390;2023-04-26T04:36:46;100865.69;;;1.15;100.00
36092;BME280;22147;52.388;13.390;2023-04-26T04:39:14;100867.34;;;1.16;100.00
36092;BME280;22147;52.388;13.390;2023-04-26T04:41:43;100866.53;;;1.20;100.00
36092;BME280;22147;52.388;13.390;2023-04-26T04:44:23;100870.13;;;1.21;100.00
36092;BME280;22147;52.388;13.390;2023-04-26T04:46:55;100872.38;;;1.29;100.00
36092;BME280;22147;52.388;13.390;2023-04-26T04:49:25;100866.47;;;1.48;100.00
36092;BME280;22147;52.388;13.390;2023-04-26T04:51:56;100880.47;;;1.51;100.00
36092;BME280;22147;52.388;13.390;2023-04-26T04:54:26;100879.72;;;1.61;100.00
36092;BME280;22147;52.388;13.390;2023-04-26T04:56:56;100886.34;;;1.75;100.00
36092;BME280;22147;52.388;13.390;2023-04-26T04:59:26;100884.97;;;1.73;100.00
36092;BME280;22147;52.388;13.390;2023-04-26T05:01:56;100888.06;;;1.87;100.00
36092;BME280;22147;52.388;13.390;2023-04-26T05:04:27;100894.94;;;1.89;100.00
36092;BME280;22147;52.388;13.390;2023-04-26T05:06:57;100890.88;;;2.07;100.00
36092;BME280;22147;52.388;13.390;2023-04-26T05:09:27;100899.19;;;2.22;100.00
36092;BME280;22147;52.388;13.390;2023-04-26T05:11:57;100899.47;;;2.26;100.00
36092;BME280;22147;52.388;13.390;2023-04-26T05:14:29;100893.19;;;2.36;100.00
36092;BME280;22147;52.388;13.390;2023-04-26T05:16:58;100896.50;;;2.38;100.00
36092;BME280;22147;52.388;13.390;2023-04-26T05:19:28;100907.81;;;2.62;100.00
36092;BME280;22147;52.388;13.390;2023-04-26T05:21:58;100908.66;;;2.68;100.00
36092;BME280;22147;52.388;13.390;2023-04-26T05:24:29;100902.63;;;2.76;100.00
36092;BME280;22147;52.388;13.390;2023-04-26T05:26:59;100908.94;;;2.92;100.00
36092;BME280;22147;52.388;13.390;2023-04-26T05:29:30;100909.53;;;2.99;100.00
36092;BME280;22147;52.388;13.390;2023-04-26T05:32:00;100910.34;;;3.25;100.00
36092;BME280;22147;52.388;13.390;2023-04-26T05:34:30;100912.28;;;3.30;100.00
36092;BME280;22147;52.388;13.390;2023-04-26T05:37:00;100915.56;;;3.47;100.00
36092;BME280;22147;52.388;13.390;2023-04-26T05:39:29;100910.06;;;3.52;100.00
36092;BME280;22147;52.388;13.390;2023-04-26T05:42:00;100916.41;;;3.47;100.00
36092;BME280;22147;52.388;13.390;2023-04-26T05:44:32;100915.81;;;3.66;100.00
36092;BME280;22147;52.388;13.390;2023-04-26T05:47:03;100912.78;;;3.78;100.00
36092;BME280;22147;52.388;13.390;2023-04-26T05:49:33;100927.03;;;3.85;100.00
36092;BME280;22147;52.388;13.390;2023-04-26T05:52:03;100923.19;;;3.96;100.00
36092;BME280;22147;52.388;13.390;2023-04-26T05:54:34;100932.44;;;4.21;100.00
36092;BME280;22147;52.388;13.390;2023-04-26T05:57:04;100928.56;;;4.27;100.00
36092;BME280;22147;52.388;13.390;2023-04-26T05:59:36;100923.28;;;4.36;100.00
36092;BME280;22147;52.388;13.390;2023-04-26T06:02:06;100929.53;;;4.57;100.00
36092;BME280;22147;52.388;13.390;2023-04-26T06:04:36;100928.16;;;4.59;100.00
36092;BME280;22147;52.388;13.390;2023-04-26T06:07:06;100940.38;;;4.87;100.00
36092;BME280;22147;52.388;13.390;2023-04-26T06:09:37;100936.50;;;4.94;100.00
36092;BME280;22147;52.388;13.390;2023-04-26T06:12:08;100940.47;;;5.17;100.00
36092;BME280;22147;52.388;13.390;2023-04-26T06:14:41;100933.16;;;5.36;100.00
36092;BME280;22147;52.388;13.390;2023-04-26T06:17:12;100938.06;;;5.39;100.00
36092;BME280;22147;52.388;13.390;2023-04-26T06:19:43;100939.84;;;5.59;100.00
36092;BME280;22147;52.388;13.390;2023-04-26T06:22:13;100934.53;;;5.68;100.00
36092;BME280;22147;52.388;13.390;2023-04-26T06:24:43;100943.25;;;5.75;100.00
36092;BME280;22147;52.388;13.390;2023-04-26T06:27:13;100939.53;;;5.95;100.00
36092;BME280;22147;52.388;13.390;2023-04-26T06:29:43;100938.81;;;6.08;99.33
36092;BME280;22147;52.388;13.390;2023-04-26T06:32:13;100943.50;;;6.32;95.42
36092;BME280;22147;52.388;13.390;2023-04-26T06:34:44;100934.66;;;6.11;97.13
36092;BME280;22147;52.388;13.390;2023-04-26T06:37:14;100944.16;;;6.24;97.31
36092;BME280;22147;52.388;13.390;2023-04-26T06:39:45;100948.84;;;6.23;99.42
36092;BME280;22147;52.388;13.390;2023-04-26T06:42:18;100946.59;;;6.49;96.67
36092;BME280;22147;52.388;13.390;2023-04-26T06:44:46;100944.75;;;6.45;95.10
36092;BME280;22147;52.388;13.390;2023-04-26T06:47:14;100947.56;;;6.83;93.94
36092;BME280;22147;52.388;13.390;2023-04-26T06:49:43;100952.94;;;7.12;92.74
36092;BME280;22147;52.388;13.390;2023-04-26T06:52:11;100946.50;;;7.36;91.53
36092;BME280;22147;52.388;13.390;2023-04-26T06:54:40;100948.69;;;7.52;90.17
36092;BME280;22147;52.388;13.390;2023-04-26T06:57:24;100941.75;;;7.55;88.28
36092;BME280;22147;52.388;13.390;2023-04-26T06:59:55;100944.50;;;7.88;86.57
36092;BME280;22147;52.388;13.390;2023-04-26T07:02:26;100950.13;;;8.10;85.93
36092;BME280;22147;52.388;13.390;2023-04-26T07:04:57;100946.50;;;8.43;83.19
36092;BME280;22147;52.388;13.390;2023-04-26T07:07:28;100950.91;;;8.44;80.95
36092;BME280;22147;52.388;13.390;2023-04-26T07:09:58;100951.41;;;8.46;80.65
36092;BME280;22147;52.388;13.390;2023-04-26T07:12:28;100956.72;;;8.28;81.81
36092;BME280;22147;52.388;13.390;2023-04-26T07:14:58;100961.72;;;7.99;82.36
36092;BME280;22147;52.388;13.390;2023-04-26T07:17:30;100964.59;;;8.07;84.06
36092;BME280;22147;52.388;13.390;2023-04-26T07:20:00;100969.41;;;7.36;84.82
36092;BME280;22147;52.388;13.390;2023-04-26T07:22:30;100959.28;;;7.64;84.77
36092;BME280;22147;52.388;13.390;2023-04-26T07:24:59;100955.59;;;7.36;85.24
36092;BME280;22147;52.388;13.390;2023-04-26T07:27:27;100964.38;;;7.05;84.37
36092;BME280;22147;52.388;13.390;2023-04-26T07:29:56;100969.13;;;7.19;85.81
36092;BME280;22147;52.388;13.390;2023-04-26T07:32:24;100964.97;;;7.87;83.36
36092;BME280;22147;52.388;13.390;2023-04-26T07:34:53;100967.28;;;8.26;79.81
36092;BME280;22147;52.388;13.390;2023-04-26T07:37:22;100962.69;;;8.63;78.26
36092;BME280;22147;52.388;13.390;2023-04-26T07:39:50;100965.66;;;8.81;79.23
36092;BME280;22147;52.388;13.390;2023-04-26T07:42:18;100972.53;;;9.20;73.74
36092;BME280;22147;52.388;13.390;2023-04-26T07:44:47;100965.06;;;9.06;75.21
36092;BME280;22147;52.388;13.390;2023-04-26T07:47:15;100964.72;;;8.71;73.20
36092;BME280;22147;52.388;13.390;2023-04-26T07:49:44;100971.50;;;8.65;74.79
36092;BME280;22147;52.388;13.390;2023-04-26T07:52:15;100977.44;;;8.59;76.45
36092;BME280;22147;52.388;13.390;2023-04-26T07:54:44;100975.81;;;9.08;72.72
36092;BME280;22147;52.388;13.390;2023-04-26T07:57:15;100977.22;;;9.55;69.89
36092;BME280;22147;52.388;13.390;2023-04-26T07:59:45;100979.59;;;9.71;68.77
36092;BME280;22147;52.388;13.390;2023-04-26T08:02:15;100977.63;;;8.90;70.99
36092;BME280;22147;52.388;13.390;2023-04-26T08:04:48;100980.41;;;9.26;72.52
36092;BME280;22147;52.388;13.390;2023-04-26T08:07:21;100981.34;;;9.67;70.31
36092;BME280;22147;52.388;13.390;2023-04-26T08:09:51;100987.00;;;10.07;68.62
36092;BME280;22147;52.388;13.390;2023-04-26T08:12:22;100975.81;;;10.21;65.08
36092;BME280;22147;52.388;13.390;2023-04-26T08:14:52;100979.78;;;9.97;65.02
36092;BME280;22147;52.388;13.390;2023-04-26T08:17:22;100971.44;;;9.97;66.27
36092;BME280;22147;52.388;13.390;2023-04-26T08:19:53;100981.56;;;9.70;65.09
36092;BME280;22147;52.388;13.390;2023-04-26T08:22:23;100985.00;;;8.94;68.79
36092;BME280;22147;52.388;13.390;2023-04-26T08:24:54;100985.00;;;8.94;68.31
36092;BME280;22147;52.388;13.390;2023-04-26T08:27:25;100984.44;;;8.56;70.63
36092;BME280;22147;52.388;13.390;2023-04-26T08:29:55;100973.78;;;9.13;71.25
36092;BME280;22147;52.388;13.390;2023-04-26T08:32:25;100982.13;;;9.36;67.81
36092;BME280;22147;52.388;13.390;2023-04-26T08:34:55;100987.75;;;9.98;69.28
36092;BME280;22147;52.388;13.390;2023-04-26T08:37:26;100995.56;;;9.96;65.90
36092;BME280;22147;52.388;13.390;2023-04-26T08:40:00;100987.75;;;9.08;66.75
36092;BME280;22147;52.388;13.390;2023-04-26T08:42:32;100982.66;;;8.74;70.03
36092;BME280;22147;52.388;13.390;2023-04-26T08:45:09;100977.75;;;8.71;71.00
36092;BME280;22147;52.388;13.390;2023-04-26T08:47:52;100989.66;;;9.22;67.85
36092;BME280;22147;52.388;13.390;2023-04-26T08:50:30;100988.94;;;9.16;69.37
36092;BME280;22147;52.388;13.390;2023-04-26T08:53:02;100982.91;;;9.82;65.66
36092;BME280;22147;52.388;13.390;2023-04-26T08:55:34;100988.44;;;10.75;61.51
36092;BME280;22147;52.388;13.390;2023-04-26T08:58:06;100987.50;;;10.40;63.20
36092;BME280;22147;52.388;13.390;2023-04-26T09:00:37;100994.38;;;10.43;61.03
36092;BME280;22147;52.388;13.390;2023-04-26T09:03:07;100994.34;;;10.83;56.43
36092;BME280;22147;52.388;13.390;2023-04-26T09:05:41;100990.31;;;11.24;57.22
36092;BME280;22147;52.388;13.390;2023-04-26T09:08:18;100997.34;;;11.73;52.76
36092;BME280;22147;52.388;13.390;2023-04-26T09:10:50;100982.25;;;11.74;54.93
36092;BME280;22147;52.388;13.390;2023-04-26T09:13:27;100993.59;;;11.60;52.85
36092;BME280;22147;52.388;13.390;2023-04-26T09:16:01;100984.53;;;10.94;54.43
36092;BME280;22147;52.388;13.390;2023-04-26T09:18:33;100993.06;;;10.17;58.95
36092;BME280;22147;52.388;13.390;2023-04-26T09:21:07;100986.41;;;10.18;58.16
36092;BME280;22147;52.388;13.390;2023-04-26T09:23:57;100992.13;;;9.91;57.50
36092;BME280;22147;52.388;13.390;2023-04-26T09:26:27;100989.66;;;9.89;57.28
36092;BME280;22147;52.388;13.390;2023-04-26T09:29:17;100986.50;;;10.05;57.79
36092;BME280;22147;52.388;13.390;2023-04-26T09:31:49;100983.69;;;9.73;59.32
36092;BME280;22147;52.388;13.390;2023-04-26T09:34:18;100981.41;;;9.75;60.85
36092;BME280;22147;52.388;13.390;2023-04-26T09:36:55;100980.53;;;10.51;61.57
36092;BME280;22147;52.388;13.390;2023-04-26T09:39:30;100985.28;;;10.59;59.32
36092;BME280;22147;52.388;13.390;2023-04-26T09:42:09;100982.84;;;10.67;58.46
36092;BME280;22147;52.388;13.390;2023-04-26T09:44:43;100986.69;;;10.39;55.75
36092;BME280;22147;52.388;13.390;2023-04-26T09:47:13;100989.31;;;10.13;57.65
36092;BME280;22147;52.388;13.390;2023-04-26T09:49:48;100988.84;;;9.89;59.75
36092;BME280;22147;52.388;13.390;2023-04-26T09:52:19;100990.53;;;9.31;60.91
36092;BME280;22147;52.388;13.390;2023-04-26T09:54:52;100992.50;;;9.30;61.41
36092;BME280;22147;52.388;13.390;2023-04-26T09:57:21;100986.22;;;9.02;62.83
36092;BME280;22147;52.388;13.390;2023-04-26T09:59:53;100985.75;;;8.72;65.08
36092;BME280;22147;52.388;13.390;2023-04-26T10:02:26;100985.66;;;9.14;65.23
36092;BME280;22147;52.388;13.390;2023-04-26T10:04:56;100985.22;;;9.57;63.10
36092;BME280;22147;52.388;13.390;2023-04-26T10:07:26;100987.47;;;9.77;60.55
36092;BME280;22147;52.388;13.390;2023-04-26T10:09:57;100986.09;;;9.66;58.42
36092;BME280;22147;52.388;13.390;2023-04-26T10:12:28;100984.94;;;9.22;61.44
36092;BME280;22147;52.388;13.390;2023-04-26T10:14:57;100992.44;;;9.22;57.53
36092;BME280;22147;52.388;13.390;2023-04-26T10:17:27;100994.97;;;9.32;59.85
36092;BME280;22147;52.388;13.390;2023-04-26T10:19:58;100978.13;;;9.28;59.68
36092;BME280;22147;52.388;13.390;2023-04-26T10:22:39;100980.53;;;9.44;59.69
36092;BME280;22147;52.388;13.390;2023-04-26T10:25:14;100987.31;;;9.15;60.01
36092;BME280;22147;52.388;13.390;2023-04-26T10:30:18;100984.78;;;8.91;60.63
36092;BME280;22147;52.388;13.390;2023-04-26T10:35:23;100982.44;;;8.98;57.62
36092;BME280;22147;52.388;13.390;2023-04-26T10:40:37;100988.03;;;8.43;58.44
36092;BME280;22147;52.388;13.390;2023-04-26T10:45:43;100977.69;;;9.12;59.38
36092;BME280;22147;52.388;13.390;2023-04-26T10:59:10;100986.19;;;10.37;50.73
36092;BME280;22147;52.388;13.390;2023-04-26T11:01:44;100982.66;;;10.23;48.66
36092;BME280;22147;52.388;13.390;2023-04-26T11:04:15;100985.69;;;10.04;51.40
36092;BME280;22147;52.388;13.390;2023-04-26T11:09:39;100986.59;;;9.68;51.19
36092;BME280;22147;52.388;13.390;2023-04-26T11:12:17;100989.13;;;9.56;53.68
36092;BME280;22147;52.388;13.390;2023-04-26T11:14:46;100986.00;;;9.35;55.63
36092;BME280;22147;52.388;13.390;2023-04-26T11:17:16;100990.06;;;8.79;56.19
36092;BME280;22147;52.388;13.390;2023-04-26T11:19:46;100993.47;;;8.62;60.61
36092;BME280;22147;52.388;13.390;2023-04-26T11:22:21;100990.63;;;8.20;61.56
36092;BME280;22147;52.388;13.390;2023-04-26T11:24:51;101001.69;;;8.20;62.20
36092;BME280;22147;52.388;13.390;2023-04-26T11:27:27;100991.47;;;8.34;61.65
36092;BME280;22147;52.388;13.390;2023-04-26T11:29:55;101000.44;;;8.12;62.11
36092;BME280;22147;52.388;13.390;2023-04-26T11:32:25;101005.09;;;8.31;61.11
36092;BME280;22147;52.388;13.390;2023-04-26T11:34:52;101002.38;;;8.45;62.75
36092;BME280;22147;52.388;13.390;2023-04-26T11:37:21;101007.09;;;8.58;61.44
36092;BME280;22147;52.388;13.390;2023-04-26T11:39:49;101005.44;;;8.85;60.50
36092;BME280;22147;52.388;13.390;2023-04-26T11:42:24;100999.66;;;8.95;58.88
36092;BME280;22147;52.388;13.390;2023-04-26T11:44:56;101001.00;;;8.98;57.89
36092;BME280;22147;52.388;13.390;2023-04-26T11:47:27;101009.66;;;8.68;57.65
36092;BME280;22147;52.388;13.390;2023-04-26T11:50:00;101008.53;;;8.55;58.38
36092;BME280;22147;52.388;13.390;2023-04-26T11:52:30;100999.81;;;8.62;58.34
36092;BME280;22147;52.388;13.390;2023-04-26T11:55:05;101001.88;;;8.43;61.00
36092;BME280;22147;52.388;13.390;2023-04-26T11:57:35;101016.00;;;8.41;62.12
36092;BME280;22147;52.388;13.390;2023-04-26T12:00:08;101011.72;;;8.49;62.55
36092;BME280;22147;52.388;13.390;2023-04-26T12:02:47;101018.78;;;8.41;61.29
36092;BME280;22147;52.388;13.390;2023-04-26T12:05:28;101015.41;;;8.58;58.38
36092;BME280;22147;52.388;13.390;2023-04-26T12:08:01;101016.53;;;8.71;58.75
36092;BME280;22147;52.388;13.390;2023-04-26T12:10:34;101022.41;;;9.06;57.33
36092;BME280;22147;52.388;13.390;2023-04-26T12:13:05;101009.25;;;9.25;58.32
36092;BME280;22147;52.388;13.390;2023-04-26T12:15:32;101013.19;;;9.47;56.86
36092;BME280;22147;52.388;13.390;2023-04-26T12:18:09;101011.50;;;9.60;57.19
36092;BME280;22147;52.388;13.390;2023-04-26T12:20:41;101023.59;;;9.64;55.42
36092;BME280;22147;52.388;13.390;2023-04-26T12:23:15;101022.16;;;10.20;54.50
36092;BME280;22147;52.388;13.390;2023-04-26T12:25:56;101014.97;;;10.42;51.53
36092;BME280;22147;52.388;13.390;2023-04-26T12:28:30;101014.44;;;10.31;53.31
36092;BME280;22147;52.388;13.390;2023-04-26T12:31:00;101016.16;;;10.27;50.04
36092;BME280;22147;52.388;13.390;2023-04-26T12:33:32;101011.81;;;9.81;51.36
36092;BME280;22147;52.388;13.390;2023-04-26T12:36:11;101006.81;;;9.10;54.20
36092;BME280;22147;52.388;13.390;2023-04-26T12:38:41;101017.31;;;8.99;55.78
36092;BME280;22147;52.388;13.390;2023-04-26T12:41:11;101027.69;;;8.52;64.96
36092;BME280;22147;52.388;13.390;2023-04-26T12:43:41;101030.06;;;8.45;67.50
36092;BME280;22147;52.388;13.390;2023-04-26T12:46:11;101024.00;;;8.43;70.67
36092;BME280;22147;52.388;13.390;2023-04-26T12:48:41;101024.94;;;8.52;73.82
36092;BME280;22147;52.388;13.390;2023-04-26T12:51:10;101013.63;;;8.90;64.77
36092;BME280;22147;52.388;13.390;2023-04-26T12:53:40;101010.09;;;9.12;63.88
36092;BME280;22147;52.388;13.390;2023-04-26T12:56:10;101013.63;;;9.40;62.13
36092;BME280;22147;52.388;13.390;2023-04-26T12:58:40;101006.72;;;10.05;59.37
36092;BME280;22147;52.388;13.390;2023-04-26T13:01:12;101012.19;;;10.90;51.22
36092;BME280;22147;52.388;13.390;2023-04-26T13:03:43;101008.13;;;11.05;50.44
36092;BME280;22147;52.388;13.390;2023-04-26T13:06:14;101011.53;;;11.02;51.08
36092;BME280;22147;52.388;13.390;2023-04-26T13:08:44;101011.53;;;10.93;51.26
36092;BME280;22147;52.388;13.390;2023-04-26T13:11:14;101015.94;;;10.94;52.51
36092;BME280;22147;52.388;13.390;2023-04-26T13:13:44;101015.59;;;10.87;49.52
36092;BME280;22147;52.388;13.390;2023-04-26T13:16:12;101014.84;;;10.55;51.30
36092;BME280;22147;52.388;13.390;2023-04-26T13:18:41;101010.59;;;10.58;52.21
36092;BME280;22147;52.388;13.390;2023-04-26T13:21:09;101006.66;;;11.51;51.59
36092;BME280;22147;52.388;13.390;2023-04-26T13:23:38;101026.59;;;12.06;47.33
36092;BME280;22147;52.388;13.390;2023-04-26T13:26:06;101027.75;;;11.87;47.06